Snyder, Texas
Current Conditions -  °F | °C
As of 12:55 PM on Sunday 23 Nov 2014 (Local Time) from KSNK Reporting Station
Clear Clear  
Wind Chill: 70°   Ceiling: Unl
Heat Index: 70°   Visibility: 7mi
Dew Point: 32°   Wind: 35mph
Humidity: 25%   Direction: 270°W
Pressure: 29.57"   Gusts: 40mph
Location:  32.72°N, 100.91°W
Report Text: KSNK 231855Z AUTO 27030G35KT 7SM CLR 21/00 A2957 RMK AO2 T02090001
Loading
Personal Weather Stations






























Interactive Weather Map New forecast layout! Learn more

10-Day Weather Forecast

Advertisements
Track Severe Weather on mobile